createdAt,value
2022-09-28T00:00:33.154Z,98492.66
2022-09-28T00:03:02.578Z,98498.66
2022-09-28T00:05:32.888Z,98482.22
2022-09-28T00:08:02.284Z,98492.56
2022-09-28T00:10:31.429Z,98485.56
2022-09-28T00:13:01.672Z,98479.47
2022-09-28T00:15:33.463Z,98470.00
2022-09-28T00:18:02.488Z,98461.47
2022-09-28T00:20:31.594Z,98473.63
2022-09-28T00:23:00.745Z,98461.47
2022-09-28T00:25:31.159Z,98462.25
2022-09-28T00:28:00.198Z,98469.34
2022-09-28T00:30:29.314Z,98456.31
2022-09-28T00:32:59.746Z,98456.31
2022-09-28T00:35:29.756Z,98461.47
2022-09-28T00:37:58.972Z,98456.31
2022-09-28T00:40:28.068Z,98440.50
2022-09-28T00:42:57.186Z,98433.50
2022-09-28T00:45:28.055Z,98431.72
2022-09-28T00:48:00.991Z,98434.44
2022-09-28T00:50:33.917Z,98428.66
2022-09-28T00:53:10.421Z,98421.34
2022-09-28T00:55:44.214Z,98426.53
2022-09-28T00:58:19.566Z,98417.50
2022-09-28T01:00:55.637Z,98418.31
2022-09-28T01:03:26.899Z,98414.13
2022-09-28T01:05:59.855Z,98418.41
2022-09-28T01:08:33.047Z,98418.50
2022-09-28T01:11:02.737Z,98399.94
2022-09-28T01:13:37.873Z,98413.13
2022-09-28T01:16:15.370Z,98404.56
2022-09-28T01:18:59.910Z,98400.94
2022-09-28T01:21:54.523Z,98405.09
2022-09-28T01:28:38.251Z,98394.50
2022-09-28T01:31:20.375Z,98382.88
2022-09-28T01:34:25.437Z,98385.84
2022-09-28T01:38:27.094Z,98380.75
2022-09-28T01:47:24.953Z,98359.78
2022-09-28T01:49:56.784Z,98349.69
2022-09-28T01:52:35.815Z,98349.19
2022-09-28T02:00:43.154Z,98340.63
2022-09-28T02:55:50.501Z,98262.25
2022-09-28T02:58:36.008Z,98263.84
2022-09-28T03:01:37.464Z,98259.66
2022-09-28T03:04:56.476Z,98248.28
2022-09-28T03:08:09.535Z,98253.56
2022-09-28T03:19:42.512Z,98240.22
2022-09-28T03:23:19.826Z,98235.59
2022-09-28T03:25:55.770Z,98238.28
2022-09-28T03:28:44.335Z,98236.47
2022-09-28T03:31:50.254Z,98235.69
2022-09-28T03:34:32.419Z,98235.69
2022-09-28T03:37:18.630Z,98233.22
2022-09-28T03:40:10.251Z,98233.34
2022-09-28T03:42:45.294Z,98226.47
2022-09-28T03:45:15.587Z,98223.06
2022-09-28T03:47:53.215Z,98215.88
2022-09-28T03:50:25.718Z,98217.00
2022-09-28T03:53:14.452Z,98209.56
2022-09-28T03:55:59.020Z,98211.44
2022-09-28T03:58:34.322Z,98205.56
2022-09-28T04:01:38.894Z,98215.91
2022-09-28T04:04:21.384Z,98199.72
2022-09-28T04:07:03.976Z,98194.53
2022-09-28T04:09:43.107Z,98190.25
2022-09-28T04:12:32.980Z,98188.00
2022-09-28T04:15:42.159Z,98184.81
2022-09-28T04:18:15.071Z,98179.88
2022-09-28T04:21:40.414Z,98176.63
2022-09-28T04:24:30.905Z,98175.59
2022-09-28T04:34:22.278Z,98167.03
2022-09-28T04:37:35.802Z,98174.00
2022-09-28T04:40:39.334Z,98152.50
2022-09-28T04:43:30.148Z,98147.31
2022-09-28T04:50:08.350Z,98143.38
2022-09-28T04:53:18.691Z,98147.97
2022-09-28T05:00:38.020Z,98155.06
2022-09-28T05:04:13.652Z,98151.00
2022-09-28T05:07:38.443Z,98138.50
2022-09-28T05:10:32.566Z,98150.78
2022-09-28T05:17:01.011Z,98137.81
2022-09-28T05:20:11.151Z,98134.88
2022-09-28T05:22:54.194Z,98137.69
2022-09-28T05:26:11.005Z,98138.22
2022-09-28T05:29:06.671Z,98136.97
2022-09-28T05:32:07.211Z,98128.13
2022-09-28T05:35:32.310Z,98132.84
2022-09-28T05:38:16.662Z,98126.66
2022-09-28T05:41:30.108Z,98127.97
2022-09-28T05:45:02.826Z,98116.75
2022-09-28T05:48:14.929Z,98109.97
2022-09-28T05:51:24.125Z,98112.00
2022-09-28T05:54:21.610Z,98111.69
2022-09-28T05:57:07.734Z,98106.44
2022-09-28T05:59:49.343Z,98102.44
2022-09-28T06:02:33.359Z,98106.06
2022-09-28T06:05:42.261Z,98108.66
2022-09-28T06:08:32.450Z,98101.97
2022-09-28T06:11:54.106Z,98095.66
2022-09-28T06:15:14.781Z,98102.44
2022-09-28T06:18:21.003Z,98118.00
2022-09-28T06:21:19.111Z,98108.94
2022-09-28T06:24:05.494Z,98106.72
2022-09-28T06:26:38.630Z,98099.88
2022-09-28T06:29:20.537Z,98103.25
2022-09-28T06:31:54.636Z,98101.75
2022-09-28T06:34:36.567Z,98101.97
2022-09-28T06:37:09.078Z,98104.25
2022-09-28T06:39:44.452Z,98096.78
2022-09-28T06:42:16.189Z,98094.41
2022-09-28T06:45:07.604Z,98093.09
2022-09-28T06:48:07.893Z,98089.59
2022-09-28T06:50:43.588Z,98085.50
2022-09-28T06:53:33.042Z,98088.31
2022-09-28T06:56:16.483Z,98094.50
2022-09-28T06:58:48.632Z,98091.84
2022-09-28T07:01:22.837Z,98096.72
2022-09-28T07:04:11.727Z,98090.16
2022-09-28T07:06:49.540Z,98084.16
2022-09-28T07:14:26.821Z,98086.13
2022-09-28T07:17:14.062Z,98084.25
2022-09-28T07:19:45.835Z,98083.03
2022-09-28T07:22:18.981Z,98081.03
2022-09-28T07:24:52.934Z,98088.13
2022-09-28T07:27:59.918Z,98083.84
2022-09-28T07:30:51.615Z,98087.13
2022-09-28T07:33:43.911Z,98086.13
2022-09-28T07:36:21.066Z,98090.34
2022-09-28T07:38:52.212Z,98078.53
2022-09-28T07:41:32.634Z,98079.75
2022-09-28T07:44:08.519Z,98087.53
2022-09-28T07:46:47.220Z,98086.00
2022-09-28T07:49:35.293Z,98094.00
2022-09-28T07:52:53.835Z,98091.69
2022-09-28T07:55:41.811Z,98088.50
2022-09-28T07:58:25.595Z,98085.09
2022-09-28T08:01:26.174Z,98088.81
2022-09-28T08:03:59.140Z,98087.50
2022-09-28T08:06:32.100Z,98087.69
2022-09-28T08:09:08.591Z,98082.59
2022-09-28T08:12:14.920Z,98085.91
2022-09-28T08:15:52.736Z,98083.56
2022-09-28T08:18:49.936Z,98081.47
2022-09-28T08:21:43.889Z,98084.44
2022-09-28T08:24:19.259Z,98078.16
2022-09-28T08:26:51.386Z,98080.38
2022-09-28T08:29:22.165Z,98078.09
2022-09-28T08:31:51.919Z,98086.53
2022-09-28T08:34:25.142Z,98087.13
2022-09-28T08:37:00.559Z,98089.03
2022-09-28T08:39:52.747Z,98076.25
2022-09-28T08:42:41.450Z,98081.72
2022-09-28T08:45:41.894Z,98075.34
2022-09-28T08:49:13.370Z,98071.41
2022-09-28T08:52:13.882Z,98062.06
2022-09-28T08:55:35.479Z,98062.25
2022-09-28T08:58:12.053Z,98055.22
2022-09-28T09:00:47.422Z,98060.47
2022-09-28T09:03:50.253Z,98055.59
2022-09-28T09:07:33.923Z,98051.13
2022-09-28T09:10:21.134Z,98051.00
2022-09-28T09:13:03.716Z,98054.41
2022-09-28T09:15:46.656Z,98057.72
2022-09-28T09:18:38.790Z,98053.91
2022-09-28T09:21:49.571Z,98062.25
2022-09-28T09:24:39.630Z,98062.44
2022-09-28T09:27:31.437Z,98062.25
2022-09-28T09:30:11.037Z,98060.22
2022-09-28T09:33:04.933Z,98066.56
2022-09-28T09:36:01.911Z,98062.19
2022-09-28T09:39:07.084Z,98056.13
2022-09-28T09:42:30.857Z,98060.78
2022-09-28T09:45:47.099Z,98067.41
2022-09-28T09:49:08.351Z,98062.63
2022-09-28T09:51:50.314Z,98068.81
2022-09-28T09:54:30.848Z,98077.69
2022-09-28T09:57:08.879Z,98069.00
2022-09-28T09:59:50.608Z,98069.69
2022-09-28T10:02:30.558Z,98071.78
2022-09-28T10:05:19.403Z,98066.56
2022-09-28T10:07:55.243Z,98064.66
2022-09-28T10:10:29.645Z,98066.31
2022-09-28T10:13:14.912Z,98068.97
2022-09-28T10:15:50.753Z,98063.41
2022-09-28T10:18:31.114Z,98067.28
2022-09-28T10:21:37.850Z,98070.25
2022-09-28T10:24:33.098Z,98070.06
2022-09-28T10:27:08.801Z,98080.66
2022-09-28T10:29:55.598Z,98078.69
2022-09-28T10:32:28.783Z,98079.31
2022-09-28T10:35:16.127Z,98079.50
2022-09-28T10:37:55.484Z,98076.28
2022-09-28T10:40:44.865Z,98074.81
2022-09-28T10:43:24.125Z,98066.50
2022-09-28T10:46:07.828Z,98072.59
2022-09-28T10:48:52.350Z,98068.91
2022-09-28T10:51:41.975Z,98068.72
2022-09-28T10:54:19.735Z,98069.09
2022-09-28T10:56:53.888Z,98076.28
2022-09-28T10:59:41.079Z,98074.00
2022-09-28T11:02:36.970Z,98071.41
2022-09-28T11:05:24.227Z,98075.72
2022-09-28T11:08:00.962Z,98071.25
2022-09-28T11:10:37.714Z,98062.25
2022-09-28T11:13:14.349Z,98062.44
2022-09-28T11:15:51.930Z,98067.00
2022-09-28T11:18:32.802Z,98069.63
2022-09-28T11:21:16.133Z,98076.72
2022-09-28T11:24:07.623Z,98068.81
2022-09-28T11:26:47.288Z,98071.25
2022-09-28T11:29:28.042Z,98082.19
2022-09-28T11:32:30.958Z,98084.72
2022-09-28T11:35:46.740Z,98085.22
2022-09-28T11:38:37.384Z,98092.34
2022-09-28T11:41:32.910Z,98082.00
2022-09-28T11:44:23.509Z,98080.03
2022-09-28T11:47:35.665Z,98090.81
2022-09-28T11:51:27.498Z,98090.69
2022-09-28T11:58:32.173Z,98091.06
2022-09-28T12:11:43.003Z,98095.13
2022-09-28T12:14:36.747Z,98100.69
2022-09-28T12:17:22.598Z,98085.16
2022-09-28T12:19:58.555Z,98100.88
2022-09-28T12:22:35.090Z,98083.47
2022-09-28T12:25:08.625Z,98090.25
2022-09-28T12:27:46.673Z,98089.81
2022-09-28T12:30:20.805Z,98087.94
2022-09-28T12:32:55.606Z,98091.34
2022-09-28T12:35:38.013Z,98090.97
2022-09-28T12:38:28.664Z,98092.84
2022-09-28T12:41:05.723Z,98107.97
2022-09-28T12:43:49.705Z,98103.31
2022-09-28T12:46:49.282Z,98115.78
2022-09-28T12:53:00.768Z,98104.22
2022-09-28T12:55:56.677Z,98103.31
2022-09-28T12:58:50.331Z,98111.59
2022-09-28T13:01:43.822Z,98110.00
2022-09-28T13:05:24.385Z,98119.13
2022-09-28T13:08:07.619Z,98110.41
2022-09-28T13:10:57.970Z,98116.94
2022-09-28T13:13:42.661Z,98123.50
2022-09-28T13:16:30.984Z,98119.13
2022-09-28T13:19:17.205Z,98117.13
2022-09-28T13:21:58.507Z,98119.28
2022-09-28T13:28:27.265Z,98118.19
2022-09-28T13:31:14.304Z,98116.19
2022-09-28T13:34:28.937Z,98122.91
2022-09-28T13:37:45.246Z,98125.50
2022-09-28T13:41:39.127Z,98121.69
2022-09-28T13:45:04.832Z,98116.97
2022-09-28T13:48:20.478Z,98120.31
2022-09-28T13:51:21.462Z,98127.09
2022-09-28T13:54:43.713Z,98124.50
2022-09-28T13:57:27.755Z,98119.91
2022-09-28T14:04:13.138Z,98113.81
2022-09-28T14:06:59.730Z,98110.41
2022-09-28T14:09:54.507Z,98128.72
2022-09-28T14:13:25.939Z,98123.41
2022-09-28T14:16:47.463Z,98124.22
2022-09-28T14:19:52.573Z,98120.53
2022-09-28T14:22:42.844Z,98126.25
2022-09-28T14:25:43.201Z,98132.44
2022-09-28T14:31:39.770Z,98136.75
2022-09-28T14:34:49.540Z,98142.56
2022-09-28T14:37:57.340Z,98141.53
2022-09-28T14:41:25.170Z,98145.06
2022-09-28T14:49:12.788Z,98152.69
2022-09-28T14:52:13.373Z,98156.25
2022-09-28T14:55:19.967Z,98157.88
2022-09-28T14:57:56.881Z,98159.66
2022-09-28T15:00:34.994Z,98164.88
2022-09-28T15:03:12.022Z,98172.59
2022-09-28T15:05:56.176Z,98170.59
2022-09-28T15:08:38.714Z,98177.25
2022-09-28T15:11:16.455Z,98183.22
2022-09-28T15:13:46.686Z,98189.25
2022-09-28T15:16:20.926Z,98180.47
2022-09-28T15:19:19.073Z,98190.25
2022-09-28T15:21:51.561Z,98194.69
2022-09-28T15:24:31.679Z,98195.56
2022-09-28T15:27:30.122Z,98193.88
2022-09-28T15:30:01.466Z,98196.59
2022-09-28T15:32:58.356Z,98196.59
2022-09-28T15:36:03.031Z,98208.25
2022-09-28T15:38:35.097Z,98211.59
2022-09-28T15:41:59.729Z,98207.47
2022-09-28T15:45:29.387Z,98214.56
2022-09-28T15:48:28.120Z,98217.06
2022-09-28T15:51:11.147Z,98221.25
2022-09-28T15:53:48.733Z,98218.50
2022-09-28T15:56:18.467Z,98221.66
2022-09-28T15:59:11.758Z,98227.66
2022-09-28T16:01:45.585Z,98223.28
2022-09-28T16:04:37.889Z,98225.19
2022-09-28T16:07:36.878Z,98226.78
2022-09-28T16:10:34.227Z,98232.06
2022-09-28T16:13:20.852Z,98232.06
2022-09-28T16:16:10.577Z,98226.88
2022-09-28T16:18:49.487Z,98223.28
2022-09-28T16:21:44.416Z,98225.97
2022-09-28T16:24:23.476Z,98225.06
2022-09-28T16:26:59.796Z,98225.88
2022-09-28T16:29:40.228Z,98235.47
2022-09-28T16:32:38.633Z,98226.88
2022-09-28T16:35:50.706Z,98233.88
2022-09-28T16:38:22.506Z,98237.47
2022-09-28T16:40:54.490Z,98235.88
2022-09-28T16:43:28.091Z,98231.56
2022-09-28T16:46:01.824Z,98236.78
2022-09-28T16:48:40.007Z,98231.56
2022-09-28T16:51:20.631Z,98235.16
2022-09-28T16:55:22.763Z,98236.19
2022-09-28T16:57:55.911Z,98230.38
2022-09-28T17:00:29.541Z,98234.06
2022-09-28T17:03:00.107Z,98229.56
2022-09-28T17:05:29.863Z,98232.06
2022-09-28T17:08:17.504Z,98239.19
2022-09-28T17:11:15.789Z,98236.59
2022-09-28T17:14:18.958Z,98240.28
2022-09-28T17:17:08.719Z,98236.66
2022-09-28T17:20:19.106Z,98240.28
2022-09-28T17:23:06.282Z,98249.28
2022-09-28T17:25:37.985Z,98245.84
2022-09-28T17:28:20.122Z,98253.94
2022-09-28T17:31:12.362Z,98262.66
2022-09-28T17:34:25.545Z,98251.06
2022-09-28T17:50:46.598Z,98256.78
2022-09-28T17:53:20.438Z,98257.38
2022-09-28T17:56:24.389Z,98262.69
2022-09-28T17:59:17.312Z,98260.88
2022-09-28T18:01:52.354Z,98257.47
2022-09-28T18:04:50.846Z,98262.69
2022-09-28T18:07:19.212Z,98261.25
2022-09-28T18:09:57.075Z,98264.47
2022-09-28T18:12:43.719Z,98252.06
2022-09-28T18:15:15.876Z,98252.88
2022-09-28T18:17:48.575Z,98250.28
2022-09-28T18:20:21.646Z,98246.28
2022-09-28T18:22:58.203Z,98253.97
2022-09-28T18:25:29.919Z,98255.66
2022-09-28T18:28:16.473Z,98253.69
2022-09-28T18:30:50.572Z,98258.69
2022-09-28T18:33:21.111Z,98247.38
2022-09-28T18:35:54.510Z,98249.25
2022-09-28T18:38:26.243Z,98245.47
2022-09-28T18:40:57.371Z,98246.00
2022-09-28T18:43:45.869Z,98244.97
2022-09-28T18:46:15.713Z,98240.69
2022-09-28T18:48:47.115Z,98258.28
2022-09-28T18:51:17.289Z,98256.09
2022-09-28T18:54:17.879Z,98253.47
2022-09-28T18:56:48.844Z,98254.50
2022-09-28T18:59:18.902Z,98240.13
2022-09-28T19:01:50.112Z,98244.84
2022-09-28T19:04:46.471Z,98242.44
2022-09-28T19:07:18.236Z,98245.97
2022-09-28T19:09:50.570Z,98248.66
2022-09-28T19:12:21.889Z,98251.69
2022-09-28T19:14:51.933Z,98253.88
2022-09-28T19:17:22.288Z,98256.28
2022-09-28T19:19:53.651Z,98259.88
2022-09-28T19:22:31.934Z,98259.28
2022-09-28T19:25:03.991Z,98264.47
2022-09-28T19:27:37.520Z,98268.25
2022-09-28T19:30:09.465Z,98270.13
2022-09-28T19:32:39.208Z,98263.81
2022-09-28T19:35:09.707Z,98266.00
2022-09-28T19:37:40.123Z,98268.97
2022-09-28T19:40:12.164Z,98267.22
2022-09-28T19:42:41.794Z,98272.25
2022-09-28T19:45:14.223Z,98274.44
2022-09-28T19:47:49.409Z,98273.56
2022-09-28T19:50:22.541Z,98280.25
2022-09-28T19:52:53.438Z,98277.03
2022-09-28T19:55:25.402Z,98283.00
2022-09-28T19:57:56.801Z,98279.09
2022-09-28T20:00:27.430Z,98291.50
2022-09-28T20:03:00.060Z,98286.78
2022-09-28T20:05:29.448Z,98294.72
2022-09-28T20:07:58.901Z,98295.41
2022-09-28T20:10:30.827Z,98295.00
2022-09-28T20:13:00.930Z,98293.34
2022-09-28T20:15:30.305Z,98296.56
2022-09-28T20:17:59.545Z,98300.88
2022-09-28T20:20:28.594Z,98305.75
2022-09-28T20:22:59.365Z,98312.34
2022-09-28T20:25:30.404Z,98308.16
2022-09-28T20:28:06.211Z,98317.94
2022-09-28T20:30:38.685Z,98324.53
2022-09-28T20:33:19.026Z,98320.84
2022-09-28T20:35:52.599Z,98317.53
2022-09-28T20:38:21.679Z,98323.63
2022-09-28T20:40:58.634Z,98325.03
2022-09-28T20:43:30.195Z,98327.81
2022-09-28T20:46:00.943Z,98327.56
2022-09-28T20:48:31.077Z,98332.19
2022-09-28T20:51:03.393Z,98344.88
2022-09-28T20:53:37.191Z,98352.00
2022-09-28T20:56:16.610Z,98348.41
2022-09-28T20:58:48.036Z,98347.31
2022-09-28T21:01:19.573Z,98351.69
2022-09-28T21:03:50.964Z,98356.09
2022-09-28T21:06:26.263Z,98356.09
2022-09-28T21:08:57.632Z,98357.72
2022-09-28T21:11:30.878Z,98359.50
2022-09-28T21:14:02.872Z,98364.09
2022-09-28T21:16:33.874Z,98361.78
2022-09-28T21:19:04.696Z,98359.88
2022-09-28T21:21:34.170Z,98360.81
2022-09-28T21:24:29.630Z,98360.81
2022-09-28T21:27:00.405Z,98366.31
2022-09-28T21:29:40.744Z,98358.91
2022-09-28T21:32:10.670Z,98361.72
2022-09-28T21:34:40.139Z,98369.91
2022-09-28T21:37:09.527Z,98370.63
2022-09-28T21:39:38.965Z,98365.72
2022-09-28T21:42:11.019Z,98370.31
2022-09-28T21:44:46.301Z,98365.09
2022-09-28T21:47:19.638Z,98366.31
2022-09-28T21:49:49.113Z,98361.09
2022-09-28T21:52:18.298Z,98365.50
2022-09-28T21:54:48.069Z,98372.13
2022-09-28T21:57:20.251Z,98371.13
2022-09-28T21:59:57.318Z,98376.53
2022-09-28T22:02:34.147Z,98373.41
2022-09-28T22:05:03.521Z,98374.50
2022-09-28T22:07:32.982Z,98384.91
2022-09-28T22:10:02.469Z,98378.72
2022-09-28T22:12:34.284Z,98379.31
2022-09-28T22:15:03.714Z,98393.22
2022-09-28T22:17:33.292Z,98380.72
2022-09-28T22:20:03.036Z,98381.72
2022-09-28T22:22:32.872Z,98390.44
2022-09-28T22:25:02.268Z,98386.94
2022-09-28T22:27:33.889Z,98394.84
2022-09-28T22:30:03.178Z,98385.34
2022-09-28T22:32:32.588Z,98385.34
2022-09-28T22:35:02.276Z,98388.63
2022-09-28T22:37:33.637Z,98390.53
2022-09-28T22:40:20.489Z,98390.63
2022-09-28T22:42:51.532Z,98394.34
2022-09-28T22:45:20.809Z,98391.34
2022-09-28T22:47:49.854Z,98396.75
2022-09-28T22:50:20.251Z,98394.53
2022-09-28T22:52:49.564Z,98393.53
2022-09-28T22:55:18.801Z,98392.56
2022-09-28T22:57:48.178Z,98384.13
2022-09-28T23:00:19.238Z,98397.34
2022-09-28T23:02:49.036Z,98390.44
2022-09-28T23:05:18.450Z,98391.34
2022-09-28T23:07:47.737Z,98387.34
2022-09-28T23:10:17.314Z,98391.13
2022-09-28T23:12:46.769Z,98392.84
2022-09-28T23:15:16.119Z,98389.53
2022-09-28T23:17:46.731Z,98384.94
2022-09-28T23:20:15.941Z,98397.75
2022-09-28T23:22:47.570Z,98402.84
2022-09-28T23:25:33.403Z,98397.16
2022-09-28T23:28:02.967Z,98403.72
2022-09-28T23:30:32.642Z,98398.16
2022-09-28T23:33:03.175Z,98401.34
2022-09-28T23:35:32.532Z,98401.25
2022-09-28T23:38:01.719Z,98399.06
2022-09-28T23:40:30.836Z,98401.97
2022-09-28T23:43:00.503Z,98403.94
2022-09-28T23:45:29.510Z,98405.84
2022-09-28T23:47:58.642Z,98407.94
2022-09-28T23:50:29.236Z,98410.34
2022-09-28T23:52:58.230Z,98414.34
2022-09-28T23:55:29.501Z,98417.31
2022-09-28T23:57:59.277Z,98418.13
